createdAt,value
2023-03-19T00:02:08.979Z,6.00
2023-03-19T00:04:47.454Z,6.00
2023-03-19T00:07:21.801Z,5.90
2023-03-19T00:09:53.729Z,5.90
2023-03-19T00:12:25.552Z,5.90
2023-03-19T00:14:57.385Z,5.90
2023-03-19T00:17:29.200Z,5.90
2023-03-19T00:20:03.551Z,5.80
2023-03-19T00:22:35.367Z,5.90
2023-03-19T00:25:11.119Z,5.90
2023-03-19T00:27:44.700Z,5.90
2023-03-19T00:30:16.584Z,5.90
2023-03-19T00:32:48.980Z,5.80
2023-03-19T00:35:23.116Z,5.80
2023-03-19T00:37:55.409Z,5.80
2023-03-19T00:40:27.428Z,5.80
2023-03-19T00:42:59.565Z,5.80
2023-03-19T00:45:31.662Z,5.80
2023-03-19T00:48:03.666Z,5.80
2023-03-19T00:50:35.985Z,5.90
2023-03-19T00:53:07.859Z,5.90
2023-03-19T00:55:39.629Z,5.90
2023-03-19T00:58:11.423Z,5.90
2023-03-19T01:00:43.207Z,5.90
2023-03-19T01:03:15.007Z,6.00
2023-03-19T01:05:53.109Z,6.00
2023-03-19T01:08:25.191Z,6.10
2023-03-19T01:10:57.037Z,6.10
2023-03-19T01:13:28.830Z,6.10
2023-03-19T01:16:01.000Z,6.20
2023-03-19T01:18:32.924Z,6.20
2023-03-19T01:21:04.834Z,6.10
2023-03-19T01:23:36.679Z,6.10
2023-03-19T01:26:09.018Z,6.10
2023-03-19T01:28:41.582Z,6.10
2023-03-19T01:31:15.878Z,6.10
2023-03-19T01:33:47.854Z,6.00
2023-03-19T01:36:19.697Z,6.00
2023-03-19T01:38:51.803Z,6.00
2023-03-19T01:41:26.472Z,6.00
2023-03-19T01:43:58.326Z,5.90
2023-03-19T01:46:34.730Z,5.90
2023-03-19T01:49:08.017Z,5.90
2023-03-19T01:51:41.588Z,5.90
2023-03-19T01:54:15.876Z,5.90
2023-03-19T01:56:51.580Z,5.90
2023-03-19T01:59:26.553Z,5.90
2023-03-19T02:02:00.649Z,5.90
2023-03-19T02:04:34.229Z,5.90
2023-03-19T02:07:06.571Z,6.00
2023-03-19T02:09:39.305Z,6.00
2023-03-19T02:12:12.134Z,6.00
2023-03-19T02:14:44.076Z,5.90
2023-03-19T02:17:15.961Z,6.00
2023-03-19T02:20:02.485Z,6.00
2023-03-19T02:22:40.183Z,6.00
2023-03-19T02:25:20.875Z,6.00
2023-03-19T02:27:53.630Z,5.90
2023-03-19T02:30:30.804Z,5.90
2023-03-19T02:33:02.578Z,5.80
2023-03-19T02:35:35.021Z,5.70
2023-03-19T02:38:07.437Z,5.70
2023-03-19T02:40:45.425Z,5.60
2023-03-19T02:43:17.369Z,5.60
2023-03-19T02:45:49.371Z,5.50
2023-03-19T02:48:21.135Z,5.50
2023-03-19T02:50:52.938Z,5.50
2023-03-19T02:53:27.178Z,5.50
2023-03-19T02:55:59.044Z,5.50
2023-03-19T02:58:31.469Z,5.50
2023-03-19T03:01:03.449Z,5.50
2023-03-19T03:03:37.900Z,5.50
2023-03-19T03:06:09.764Z,5.50
2023-03-19T03:08:41.550Z,5.50
2023-03-19T03:11:13.379Z,5.40
2023-03-19T03:13:45.121Z,5.40
2023-03-19T03:16:17.538Z,5.40
2023-03-19T03:18:49.369Z,5.40
2023-03-19T03:21:24.155Z,5.40
2023-03-19T03:23:56.585Z,5.50
2023-03-19T03:26:28.392Z,5.50
2023-03-19T03:29:00.311Z,5.50
2023-03-19T03:31:36.726Z,5.50
2023-03-19T03:34:08.577Z,5.50
2023-03-19T03:36:40.499Z,5.50
2023-03-19T03:39:12.376Z,5.50
2023-03-19T03:41:44.352Z,5.50
2023-03-19T03:44:16.135Z,5.50
2023-03-19T03:46:48.209Z,5.50
2023-03-19T03:49:20.045Z,5.50
2023-03-19T03:51:52.665Z,5.40
2023-03-19T03:54:24.452Z,5.30
2023-03-19T03:56:56.331Z,5.30
2023-03-19T03:59:30.739Z,5.20
2023-03-19T04:02:05.014Z,5.20
2023-03-19T04:04:37.301Z,5.10
2023-03-19T04:07:09.095Z,5.10
2023-03-19T04:09:41.303Z,5.00
2023-03-19T04:12:13.902Z,5.10
2023-03-19T04:14:45.718Z,5.10
2023-03-19T04:17:18.309Z,5.10
2023-03-19T04:19:50.261Z,5.10
2023-03-19T04:22:24.554Z,5.20
2023-03-19T04:24:58.662Z,5.20
2023-03-19T04:27:30.452Z,5.20
2023-03-19T04:30:02.359Z,5.20
2023-03-19T04:32:37.174Z,5.10
2023-03-19T04:35:09.097Z,5.10
2023-03-19T04:37:48.807Z,5.10
2023-03-19T04:40:20.736Z,5.10
2023-03-19T04:42:55.017Z,5.10
2023-03-19T04:45:27.113Z,5.00
2023-03-19T04:47:58.952Z,5.00
2023-03-19T04:50:30.909Z,5.00
2023-03-19T04:53:02.949Z,5.10
2023-03-19T04:55:34.739Z,5.10
2023-03-19T04:58:06.848Z,5.10
2023-03-19T05:00:38.602Z,5.00
2023-03-19T05:03:10.398Z,5.00
2023-03-19T05:05:42.226Z,5.00
2023-03-19T05:08:14.071Z,5.00
2023-03-19T05:10:46.011Z,5.00
2023-03-19T05:13:20.392Z,5.00
2023-03-19T05:15:54.119Z,5.00
2023-03-19T05:18:26.271Z,5.00
2023-03-19T05:20:58.621Z,5.00
2023-03-19T05:23:30.538Z,5.10
2023-03-19T05:26:02.340Z,5.10
2023-03-19T05:28:34.475Z,5.20
2023-03-19T05:31:06.310Z,5.30
2023-03-19T05:33:38.179Z,5.30
2023-03-19T05:36:10.000Z,5.40
2023-03-19T05:38:41.912Z,5.40
2023-03-19T05:41:13.670Z,5.40
2023-03-19T05:43:45.481Z,5.50
2023-03-19T05:46:17.343Z,5.50
2023-03-19T05:48:49.152Z,5.60
2023-03-19T05:51:21.083Z,5.60
2023-03-19T05:53:52.991Z,5.70
2023-03-19T05:56:24.858Z,5.70
2023-03-19T05:58:56.805Z,5.80
2023-03-19T06:01:28.714Z,5.90
2023-03-19T06:04:00.846Z,5.90
2023-03-19T06:06:35.172Z,6.00
2023-03-19T06:09:09.069Z,6.10
2023-03-19T06:11:41.144Z,6.10
2023-03-19T06:14:12.955Z,6.10
2023-03-19T06:16:44.842Z,6.20
2023-03-19T06:19:16.680Z,6.30
2023-03-19T06:21:48.456Z,6.40
2023-03-19T06:24:22.378Z,6.50
2023-03-19T06:26:54.139Z,6.70
2023-03-19T06:29:26.176Z,6.80
2023-03-19T06:31:58.305Z,6.90
2023-03-19T06:34:32.516Z,7.00
2023-03-19T06:37:04.268Z,7.20
2023-03-19T06:39:36.168Z,7.30
2023-03-19T06:42:08.352Z,7.50
2023-03-19T06:44:40.309Z,7.60
2023-03-19T06:47:12.075Z,7.80
2023-03-19T06:49:43.851Z,7.90
2023-03-19T06:52:17.961Z,8.10
2023-03-19T06:54:49.750Z,8.40
2023-03-19T06:57:23.975Z,8.70
2023-03-19T06:59:55.885Z,9.00
2023-03-19T07:02:27.697Z,9.30
2023-03-19T07:04:59.633Z,9.70
2023-03-19T07:07:31.733Z,10.20
2023-03-19T07:10:04.052Z,10.70
2023-03-19T07:12:36.244Z,11.20
2023-03-19T07:15:08.212Z,11.60
2023-03-19T07:17:40.011Z,12.00
2023-03-19T07:20:14.655Z,12.50
2023-03-19T07:22:46.414Z,12.90
2023-03-19T07:25:20.802Z,13.30
2023-03-19T07:27:54.875Z,13.60
2023-03-19T07:30:27.856Z,13.90
2023-03-19T07:32:59.642Z,14.00
2023-03-19T07:35:31.488Z,14.00
2023-03-19T07:38:03.395Z,14.10
2023-03-19T07:40:35.527Z,14.30
2023-03-19T07:43:09.985Z,14.40
2023-03-19T07:45:44.376Z,14.50
2023-03-19T07:48:16.418Z,14.50
2023-03-19T07:50:52.698Z,14.50
2023-03-19T07:53:24.531Z,14.40
2023-03-19T07:55:56.546Z,14.30
2023-03-19T07:58:30.815Z,14.20
2023-03-19T08:01:02.689Z,14.20
2023-03-19T08:03:34.472Z,14.20
2023-03-19T08:06:06.512Z,14.40
2023-03-19T08:08:38.362Z,14.50
2023-03-19T08:11:12.835Z,14.60
2023-03-19T08:13:44.654Z,14.90
2023-03-19T08:16:18.885Z,15.10
2023-03-19T08:18:52.627Z,15.30
2023-03-19T08:21:24.535Z,15.30
2023-03-19T08:23:56.421Z,15.50
2023-03-19T08:26:33.217Z,15.60
2023-03-19T08:29:05.000Z,15.60
2023-03-19T08:31:36.791Z,15.70
2023-03-19T08:34:10.377Z,15.80
2023-03-19T08:36:42.204Z,15.90
2023-03-19T08:39:17.097Z,16.00
2023-03-19T08:41:51.373Z,16.00
2023-03-19T08:44:23.158Z,16.10
2023-03-19T08:46:55.587Z,16.10
2023-03-19T08:49:27.587Z,16.20
2023-03-19T08:51:59.387Z,16.20
2023-03-19T08:54:31.197Z,16.30
2023-03-19T08:57:03.255Z,16.40
2023-03-19T08:59:35.100Z,16.40
2023-03-19T09:02:07.531Z,16.50
2023-03-19T09:04:48.010Z,16.50
2023-03-19T09:07:19.944Z,16.60
2023-03-19T09:09:51.721Z,16.60
2023-03-19T09:12:23.647Z,16.60
2023-03-19T09:14:55.611Z,16.80
2023-03-19T09:17:29.812Z,16.90
2023-03-19T09:20:01.616Z,17.00
2023-03-19T09:22:33.396Z,17.10
2023-03-19T09:25:05.403Z,17.10
2023-03-19T09:27:40.058Z,17.20
2023-03-19T09:30:12.120Z,17.20
2023-03-19T09:32:43.973Z,17.10
2023-03-19T09:35:16.012Z,17.10
2023-03-19T09:37:47.906Z,17.00
2023-03-19T09:40:26.994Z,17.00
2023-03-19T09:43:19.021Z,17.00
2023-03-19T09:45:50.957Z,17.00
2023-03-19T09:48:31.303Z,17.10
2023-03-19T09:51:08.423Z,17.10
2023-03-19T09:53:45.669Z,17.10
2023-03-19T09:56:19.459Z,17.20
2023-03-19T09:58:54.133Z,17.20
2023-03-19T10:01:33.709Z,17.30
2023-03-19T10:04:08.639Z,17.40
2023-03-19T10:06:41.148Z,17.60
2023-03-19T10:09:16.287Z,17.70
2023-03-19T10:11:57.813Z,17.70
2023-03-19T10:14:29.614Z,17.70
2023-03-19T10:17:04.442Z,17.70
2023-03-19T10:19:43.482Z,17.70
2023-03-19T10:22:18.313Z,17.70
2023-03-19T10:24:50.770Z,17.80
2023-03-19T10:27:25.477Z,17.80
2023-03-19T10:29:57.310Z,17.80
2023-03-19T10:32:31.782Z,17.80
2023-03-19T10:35:18.211Z,17.70
2023-03-19T10:37:51.027Z,17.70
2023-03-19T10:40:44.471Z,17.70
2023-03-19T10:43:24.863Z,17.50
2023-03-19T10:45:57.626Z,17.30
2023-03-19T10:48:30.812Z,17.20
2023-03-19T10:51:05.672Z,17.20
2023-03-19T10:53:38.225Z,17.10
2023-03-19T10:56:10.007Z,17.00
2023-03-19T10:58:55.432Z,17.00
2023-03-19T11:01:34.966Z,17.00
2023-03-19T11:04:16.488Z,16.90
2023-03-19T11:06:49.329Z,16.90
2023-03-19T11:09:24.149Z,16.90
2023-03-19T11:11:59.507Z,17.00
2023-03-19T11:14:41.508Z,16.90
2023-03-19T11:17:26.544Z,16.70
2023-03-19T11:19:59.297Z,16.60
2023-03-19T11:22:33.776Z,16.60
2023-03-19T11:25:15.715Z,16.80
2023-03-19T11:28:04.345Z,16.90
2023-03-19T11:30:39.209Z,17.00
2023-03-19T11:33:27.134Z,17.10
2023-03-19T11:36:09.203Z,17.20
2023-03-19T11:38:44.109Z,17.30
2023-03-19T11:41:27.166Z,17.30
2023-03-19T11:44:28.681Z,17.40
2023-03-19T11:47:00.602Z,17.50
2023-03-19T11:49:39.244Z,17.60
2023-03-19T11:52:29.910Z,17.70
2023-03-19T11:55:25.767Z,17.80
2023-03-19T11:58:06.745Z,17.80
2023-03-19T12:00:39.467Z,17.90
2023-03-19T12:03:20.505Z,18.00
2023-03-19T12:06:08.432Z,17.90
2023-03-19T12:08:40.182Z,17.80
2023-03-19T12:11:25.490Z,17.70
2023-03-19T12:14:15.742Z,17.80
2023-03-19T12:16:50.630Z,17.90
2023-03-19T12:19:54.886Z,17.90
2023-03-19T12:22:41.772Z,17.80
2023-03-19T12:25:17.529Z,17.80
2023-03-19T12:28:00.717Z,17.90
2023-03-19T12:30:39.447Z,17.80
2023-03-19T12:33:30.644Z,17.80
2023-03-19T12:36:03.413Z,17.80
2023-03-19T12:38:43.436Z,17.80
2023-03-19T12:41:20.623Z,17.90
2023-03-19T12:44:02.026Z,17.90
2023-03-19T12:46:37.008Z,18.00
2023-03-19T12:49:11.885Z,18.10
2023-03-19T12:51:49.575Z,18.10
2023-03-19T12:54:28.579Z,18.20
2023-03-19T12:57:19.742Z,18.40
2023-03-19T12:59:57.557Z,18.50
2023-03-19T13:02:42.626Z,18.70
2023-03-19T13:05:33.022Z,18.70
2023-03-19T13:08:17.221Z,18.80
2023-03-19T13:10:49.172Z,19.00
2023-03-19T13:13:39.706Z,19.30
2023-03-19T13:16:17.677Z,19.30
2023-03-19T13:19:10.586Z,19.40
2023-03-19T13:21:42.909Z,19.40
2023-03-19T13:24:21.957Z,19.30
2023-03-19T13:26:54.926Z,19.10
2023-03-19T13:29:31.107Z,18.90
2023-03-19T13:32:07.795Z,18.70
2023-03-19T13:34:43.112Z,18.70
2023-03-19T13:37:16.179Z,18.80
2023-03-19T13:39:51.463Z,18.80
2023-03-19T13:42:43.859Z,18.80
2023-03-19T13:45:21.629Z,18.80
2023-03-19T13:47:54.842Z,18.40
2023-03-19T13:50:28.184Z,18.20
2023-03-19T13:53:21.535Z,18.00
2023-03-19T13:55:55.079Z,17.80
2023-03-19T13:58:47.997Z,17.70
2023-03-19T14:01:25.939Z,17.60
2023-03-19T14:04:01.523Z,17.50
2023-03-19T14:06:40.943Z,17.40
2023-03-19T14:09:32.166Z,17.30
2023-03-19T14:12:16.546Z,17.20
2023-03-19T14:14:51.870Z,17.10
2023-03-19T14:17:32.667Z,17.10
2023-03-19T14:20:32.929Z,17.00
2023-03-19T14:23:08.950Z,16.90
2023-03-19T14:25:53.124Z,16.80
2023-03-19T14:28:34.136Z,16.70
2023-03-19T14:31:06.682Z,16.60
2023-03-19T14:33:38.426Z,16.50
2023-03-19T14:36:16.619Z,16.40
2023-03-19T14:38:53.987Z,16.30
2023-03-19T14:41:27.008Z,16.30
2023-03-19T14:44:09.495Z,16.30
2023-03-19T14:46:44.361Z,16.30
2023-03-19T14:49:31.590Z,16.30
2023-03-19T14:52:16.453Z,16.30
2023-03-19T14:54:50.941Z,16.20
2023-03-19T14:57:35.900Z,16.20
2023-03-19T15:00:13.038Z,16.20
2023-03-19T15:02:49.917Z,16.20
2023-03-19T15:05:33.248Z,16.20
2023-03-19T15:08:09.573Z,16.20
2023-03-19T15:10:47.093Z,16.20
2023-03-19T15:13:31.193Z,16.20
2023-03-19T15:16:08.953Z,16.20
2023-03-19T15:18:40.950Z,16.20
2023-03-19T15:21:15.114Z,16.10
2023-03-19T15:23:47.305Z,15.90
2023-03-19T15:26:29.952Z,15.80
2023-03-19T15:29:04.244Z,15.60
2023-03-19T15:31:51.792Z,15.20
2023-03-19T15:34:26.893Z,14.80
2023-03-19T15:37:02.621Z,14.50
2023-03-19T15:39:37.174Z,14.30
2023-03-19T15:42:09.239Z,14.10
2023-03-19T15:44:46.910Z,13.90
2023-03-19T15:47:22.905Z,13.80
2023-03-19T15:50:01.710Z,13.70
2023-03-19T15:52:36.308Z,13.60
2023-03-19T15:55:12.755Z,13.50
2023-03-19T15:57:45.334Z,13.40
2023-03-19T16:00:18.137Z,13.30
2023-03-19T16:02:51.414Z,13.20
2023-03-19T16:05:24.585Z,13.00
2023-03-19T16:08:04.280Z,12.80
2023-03-19T16:10:41.075Z,12.70
2023-03-19T16:13:19.022Z,12.50
2023-03-19T16:16:00.606Z,12.40
2023-03-19T16:18:41.934Z,12.20
2023-03-19T16:21:16.105Z,12.10
2023-03-19T16:23:53.268Z,11.90
2023-03-19T16:26:26.669Z,11.90
2023-03-19T16:29:05.658Z,11.80
2023-03-19T16:31:43.004Z,11.70
2023-03-19T16:34:23.811Z,11.60
2023-03-19T16:36:58.192Z,11.60
2023-03-19T16:39:34.563Z,11.50
2023-03-19T16:42:09.317Z,11.30
2023-03-19T16:44:46.302Z,11.20
2023-03-19T16:47:18.186Z,11.00
2023-03-19T16:49:50.069Z,10.80
2023-03-19T16:52:23.987Z,10.70
2023-03-19T16:54:56.501Z,10.70
2023-03-19T16:57:28.430Z,10.70
2023-03-19T17:00:00.277Z,10.70
2023-03-19T17:02:32.121Z,10.60
2023-03-19T17:05:06.990Z,10.70
2023-03-19T17:07:38.833Z,10.70
2023-03-19T17:10:14.833Z,10.70
2023-03-19T17:12:48.097Z,10.60
2023-03-19T17:15:31.477Z,10.70
2023-03-19T17:18:07.742Z,10.60
2023-03-19T17:20:42.335Z,10.60
2023-03-19T17:23:14.432Z,10.60
2023-03-19T17:25:49.182Z,10.60
2023-03-19T17:28:21.117Z,10.60
2023-03-19T17:30:55.846Z,10.60
2023-03-19T17:33:28.999Z,10.60
2023-03-19T17:36:03.258Z,10.60
2023-03-19T17:38:35.275Z,10.60
2023-03-19T17:41:12.837Z,10.60
2023-03-19T17:43:47.720Z,10.60
2023-03-19T17:46:21.280Z,10.60
2023-03-19T17:48:57.910Z,10.60
2023-03-19T17:51:31.123Z,10.60
2023-03-19T17:54:04.297Z,10.60
2023-03-19T17:56:38.414Z,10.70
2023-03-19T17:59:10.862Z,10.70
2023-03-19T18:01:47.290Z,10.70
2023-03-19T18:04:20.606Z,10.70
2023-03-19T18:06:54.353Z,10.80
2023-03-19T18:09:28.582Z,10.80
2023-03-19T18:12:02.892Z,10.80
2023-03-19T18:14:34.869Z,10.80
2023-03-19T18:17:08.478Z,10.80
2023-03-19T18:19:40.333Z,10.80
2023-03-19T18:22:13.695Z,10.80
2023-03-19T18:24:45.961Z,10.80
2023-03-19T18:27:24.149Z,10.80
2023-03-19T18:29:55.974Z,10.80
2023-03-19T18:32:30.220Z,10.80
2023-03-19T18:35:02.793Z,10.80
2023-03-19T18:37:34.613Z,10.80
2023-03-19T18:40:11.345Z,10.70
2023-03-19T18:42:43.689Z,10.70
2023-03-19T18:45:17.372Z,10.50
2023-03-19T18:47:54.292Z,10.40
2023-03-19T18:50:30.046Z,10.40
2023-03-19T18:53:01.845Z,10.30
2023-03-19T18:55:34.201Z,10.20
2023-03-19T18:58:06.112Z,10.20
2023-03-19T19:00:41.207Z,10.10
2023-03-19T19:03:14.206Z,10.00
2023-03-19T19:05:46.380Z,10.00
2023-03-19T19:08:19.454Z,10.00
2023-03-19T19:10:52.644Z,9.90
2023-03-19T19:13:28.868Z,9.80
2023-03-19T19:16:04.480Z,9.80
2023-03-19T19:18:36.301Z,9.80
2023-03-19T19:21:12.875Z,9.80
2023-03-19T19:23:46.930Z,9.80
2023-03-19T19:26:26.318Z,9.80
2023-03-19T19:28:59.405Z,9.70
2023-03-19T19:31:32.521Z,9.70
2023-03-19T19:34:04.427Z,9.70
2023-03-19T19:36:36.345Z,9.70
2023-03-19T19:39:08.567Z,9.70
2023-03-19T19:41:41.036Z,9.70
2023-03-19T19:44:19.525Z,9.70
2023-03-19T19:46:54.641Z,9.70
2023-03-19T19:49:27.261Z,9.70
2023-03-19T19:51:59.122Z,9.70
2023-03-19T19:54:31.191Z,9.70
2023-03-19T19:57:05.686Z,9.80
2023-03-19T19:59:39.330Z,9.80
2023-03-19T20:02:28.862Z,9.80
2023-03-19T20:05:01.179Z,9.80
2023-03-19T20:07:33.011Z,9.90
2023-03-19T20:10:04.948Z,9.80
2023-03-19T20:12:36.863Z,9.80
2023-03-19T20:15:20.627Z,9.80
2023-03-19T20:17:54.094Z,9.90
2023-03-19T20:20:27.187Z,9.80
2023-03-19T20:22:59.472Z,9.80
2023-03-19T20:25:37.685Z,9.80
2023-03-19T20:28:24.935Z,9.80
2023-03-19T20:31:11.429Z,9.80
2023-03-19T20:33:48.031Z,9.80
2023-03-19T20:36:22.845Z,9.80
2023-03-19T20:38:54.731Z,9.80
2023-03-19T20:41:27.465Z,9.80
2023-03-19T20:44:00.695Z,9.80
2023-03-19T20:46:32.904Z,9.80
2023-03-19T20:49:09.432Z,9.80
2023-03-19T20:51:42.893Z,9.90
2023-03-19T20:54:16.144Z,9.80
2023-03-19T20:56:48.797Z,9.90
2023-03-19T20:59:20.891Z,9.80
2023-03-19T21:01:56.387Z,9.90
2023-03-19T21:04:28.497Z,9.90
2023-03-19T21:07:01.044Z,9.90
2023-03-19T21:09:33.122Z,9.90
2023-03-19T21:12:14.018Z,9.90
2023-03-19T21:14:45.869Z,9.90
2023-03-19T21:17:18.829Z,9.90
2023-03-19T21:19:50.754Z,9.80
2023-03-19T21:22:23.961Z,9.80
2023-03-19T21:25:05.106Z,9.70
2023-03-19T21:27:37.163Z,9.70
2023-03-19T21:30:11.698Z,9.60
2023-03-19T21:32:43.636Z,9.50
2023-03-19T21:35:22.034Z,9.40
2023-03-19T21:37:55.540Z,9.30
2023-03-19T21:40:34.010Z,9.20
2023-03-19T21:43:06.015Z,9.00
2023-03-19T21:45:41.390Z,8.90
2023-03-19T21:48:16.020Z,8.90
2023-03-19T21:50:50.561Z,8.90
2023-03-19T21:53:26.136Z,8.80
2023-03-19T21:56:01.002Z,8.70
2023-03-19T22:01:23.781Z,8.60
2023-03-19T22:03:56.787Z,8.70
2023-03-19T22:06:39.213Z,8.70
2023-03-19T22:09:12.165Z,8.70
2023-03-19T22:11:46.827Z,8.70
2023-03-19T22:14:27.180Z,8.70
2023-03-19T22:17:01.880Z,8.80
2023-03-19T22:19:40.298Z,8.70
2023-03-19T22:22:12.891Z,8.70
2023-03-19T22:24:48.011Z,8.70
2023-03-19T22:27:20.635Z,8.70
2023-03-19T22:29:52.451Z,8.80
2023-03-19T22:32:24.273Z,8.80
2023-03-19T22:34:57.077Z,8.70
2023-03-19T22:37:29.823Z,8.70
2023-03-19T22:40:01.638Z,8.70
2023-03-19T22:42:33.499Z,8.70
2023-03-19T22:45:05.579Z,8.70
2023-03-19T22:47:39.908Z,8.70
2023-03-19T22:50:19.483Z,8.70
2023-03-19T22:52:51.818Z,8.70
2023-03-19T22:55:23.642Z,8.70
2023-03-19T22:57:55.615Z,8.70
2023-03-19T23:00:27.392Z,8.70
2023-03-19T23:03:00.953Z,8.70
2023-03-19T23:05:37.719Z,8.70
2023-03-19T23:08:15.649Z,8.70
2023-03-19T23:10:48.156Z,8.70
2023-03-19T23:13:23.313Z,8.60
2023-03-19T23:15:58.985Z,8.50
2023-03-19T23:18:32.683Z,8.40
2023-03-19T23:21:04.618Z,8.40
2023-03-19T23:23:39.262Z,8.30
2023-03-19T23:26:23.865Z,8.20
2023-03-19T23:28:56.869Z,8.20
2023-03-19T23:31:28.769Z,8.20
2023-03-19T23:34:00.877Z,8.10
2023-03-19T23:36:32.887Z,8.20
2023-03-19T23:39:05.181Z,8.20
2023-03-19T23:41:44.824Z,8.20
2023-03-19T23:44:18.594Z,8.20
2023-03-19T23:46:51.372Z,8.30
2023-03-19T23:49:33.265Z,8.30
2023-03-19T23:52:05.389Z,8.30
2023-03-19T23:54:37.936Z,8.30
2023-03-19T23:57:13.023Z,8.40
2023-03-19T23:59:46.462Z,8.30
